Time;durP1;ratioP1;P1;durP2;ratioP2;P2;SDS_P1;SDS_P2;PMS_P1;PMS_P2;Temp;Humidity;BMP_temperature;BMP_pressure;BME280_temperature;BME280_humidity;BME280_pressure;Samples;Min_cycle;Max_cycle;Signal;HPM_P1;HPM_P2
2022/10/19 00:01:10;;;;;;;10.02;2.28;;;10.30;99.90;;;;;;5049244;28;20037;-59
2022/10/19 00:03:35;;;;;;;7.63;1.80;;;10.80;99.90;;;;;;5055516;28;20044;-59
2022/10/19 00:06:14;;;;;;;6.10;1.50;;;10.60;99.90;;;;;;5049838;28;20453;-59
2022/10/19 00:08:40;;;;;;;5.13;1.70;;;10.50;99.90;;;;;;5034736;28;20504;-59
2022/10/19 00:11:08;;;;;;;6.15;1.52;;;10.40;99.90;;;;;;5054015;28;20040;-59
2022/10/19 00:13:34;;;;;;;7.97;1.88;;;10.70;99.90;;;;;;5052974;28;20048;-58
2022/10/19 00:16:00;;;;;;;6.50;1.48;;;10.80;99.90;;;;;;5047022;28;20041;-59
2022/10/19 00:18:26;;;;;;;9.65;1.80;;;10.80;99.90;;;;;;5057464;28;20094;-58
2022/10/19 00:20:52;;;;;;;5.70;1.58;;;10.60;99.90;;;;;;5062529;28;20036;-57
2022/10/19 00:23:17;;;;;;;8.05;2.15;;;10.60;99.90;;;;;;5052435;28;20040;-57
2022/10/19 00:25:54;;;;;;;9.35;1.70;;;10.80;99.90;;;;;;5059789;28;20041;-58
2022/10/19 00:28:20;;;;;;;9.70;2.13;;;10.80;99.90;;;;;;5025182;28;21742;-59
2022/10/19 00:30:45;;;;;;;8.57;2.13;;;10.80;99.90;;;;;;5019541;28;20041;-58
2022/10/19 00:33:11;;;;;;;4.35;1.58;;;10.80;99.90;;;;;;5036547;28;20033;-58
2022/10/19 00:35:40;;;;;;;7.78;1.73;;;11.60;99.90;;;;;;5039231;28;20041;-59
2022/10/19 00:38:05;;;;;;;12.02;1.80;;;10.40;99.90;;;;;;5064500;28;20102;-59
2022/10/19 00:40:38;;;;;;;6.38;1.55;;;10.70;99.90;;;;;;5036500;28;20048;-59
2022/10/19 00:43:05;;;;;;;4.72;1.50;;;;;;;;;;5051272;28;20052;-59
2022/10/19 00:45:31;;;;;;;6.45;1.90;;;10.90;99.90;;;;;;5054756;28;20665;-55
2022/10/19 00:47:56;;;;;;;5.40;1.60;;;11.00;99.90;;;;;;5059847;28;20064;-57
2022/10/19 00:50:22;;;;;;;9.10;2.65;;;10.80;99.90;;;;;;5054057;28;20029;-56
2022/10/19 00:52:48;;;;;;;7.00;1.70;;;11.00;99.90;;;;;;5050460;28;20136;-58
2022/10/19 00:55:13;;;;;;;6.65;1.80;;;11.00;99.90;;;;;;5052080;28;20048;-57
2022/10/19 00:57:39;;;;;;;5.47;1.50;;;11.00;99.90;;;;;;5061701;28;20032;-58
2022/10/19 01:00:07;;;;;;;5.82;1.52;;;11.00;99.90;;;;;;5052278;28;20477;-57
2022/10/19 01:02:33;;;;;;;4.78;1.50;;;11.00;99.90;;;;;;5057429;28;20511;-58
2022/10/19 01:05:00;;;;;;;6.47;1.88;;;11.00;99.90;;;;;;5060016;28;20162;-58
2022/10/19 01:07:26;;;;;;;9.40;2.00;;;10.90;99.90;;;;;;5057405;28;20051;-55
2022/10/19 01:09:53;;;;;;;8.48;2.50;;;10.60;99.90;;;;;;5051928;28;20035;-57
2022/10/19 01:12:43;;;;;;;11.32;1.95;;;11.10;99.90;;;;;;5051970;28;20450;-56
2022/10/19 01:15:26;;;;;;;4.72;1.33;;;10.90;99.90;;;;;;5049618;28;20036;-56
2022/10/19 01:18:17;;;;;;;8.68;1.73;;;10.80;99.90;;;;;;5062653;28;20040;-58
2022/10/19 01:20:59;;;;;;;11.13;3.25;;;11.50;99.90;;;;;;5048092;28;20076;-57
2022/10/19 01:23:43;;;;;;;9.00;1.50;;;10.30;99.90;;;;;;5054903;28;20033;-54
2022/10/19 01:26:29;;;;;;;4.90;1.40;;;11.00;99.90;;;;;;5056654;28;20033;-57
2022/10/19 01:29:21;;;;;;;7.43;1.58;;;11.00;99.90;;;;;;5051038;28;21819;-58
2022/10/19 01:32:02;;;;;;;5.38;1.38;;;11.00;99.90;;;;;;5053989;28;20143;-57
2022/10/19 01:34:33;;;;;;;8.27;1.80;;;;;;;;;;5058066;28;20060;-58
2022/10/19 01:37:41;;;;;;;6.32;1.40;;;11.00;99.90;;;;;;5050957;28;20040;-57
2022/10/19 01:40:18;;;;;;;8.55;1.30;;;11.90;99.90;;;;;;5021337;28;20045;-57
2022/10/19 01:43:08;;;;;;;6.35;2.08;;;11.00;99.90;;;;;;5059748;28;20082;-54
2022/10/19 01:45:54;;;;;;;8.43;2.03;;;11.10;99.90;;;;;;5058870;28;20071;-58
2022/10/19 01:48:28;;;;;;;7.00;1.40;;;;;;;;;;5049757;28;20640;-57
2022/10/19 01:51:04;;;;;;;10.35;2.17;;;10.90;99.90;;;;;;5042531;28;20036;-56
2022/10/19 01:53:34;;;;;;;8.73;1.55;;;11.20;99.90;;;;;;5051947;28;20102;-58
2022/10/19 01:56:03;;;;;;;5.00;1.20;;;11.10;99.90;;;;;;5054311;28;20041;-56
2022/10/19 01:58:32;;;;;;;8.10;1.67;;;10.80;99.90;;;;;;5061294;28;20524;-57
2022/10/19 02:01:02;;;;;;;10.77;1.70;;;10.90;99.90;;;;;;5064067;28;20037;-59
2022/10/19 02:03:28;;;;;;;12.88;2.10;;;11.00;99.90;;;;;;5062489;28;20040;-58
2022/10/19 02:05:55;;;;;;;6.53;1.30;;;11.10;99.90;;;;;;5050865;28;20042;-58
2022/10/19 02:08:28;;;;;;;7.00;1.40;;;;;;;;;;5057981;28;20394;-58
2022/10/19 02:10:55;;;;;;;7.07;1.60;;;11.00;99.90;;;;;;5056531;28;20029;-59
2022/10/19 02:13:21;;;;;;;13.25;1.75;;;10.90;99.90;;;;;;5050877;28;20051;-57
2022/10/19 02:15:50;;;;;;;9.73;1.70;;;11.70;99.90;;;;;;5052614;28;20037;-58
2022/10/19 02:18:22;;;;;;;4.78;1.40;;;10.80;99.90;;;;;;5061879;28;20097;-57
2022/10/19 02:20:48;;;;;;;6.82;1.67;;;11.20;99.90;;;;;;5054289;28;20041;-57
2022/10/19 02:23:17;;;;;;;6.88;1.55;;;11.20;99.90;;;;;;5032516;28;20564;-59
2022/10/19 02:25:43;;;;;;;5.63;1.50;;;11.20;99.90;;;;;;5054352;28;20080;-59
2022/10/19 02:28:08;;;;;;;6.85;1.50;;;11.00;99.90;;;;;;5057456;28;20533;-58
2022/10/19 02:30:34;;;;;;;10.23;1.65;;;11.80;99.90;;;;;;5049576;28;20032;-59
2022/10/19 02:33:00;;;;;;;7.78;1.42;;;11.10;99.90;;;;;;5047485;28;20033;-58
2022/10/19 02:35:26;;;;;;;9.80;1.83;;;11.80;99.90;;;;;;5057346;28;20032;-59
2022/10/19 02:37:51;;;;;;;8.50;1.60;;;11.50;99.90;;;;;;5049758;28;20033;-57
2022/10/19 02:40:17;;;;;;;8.57;1.40;;;11.30;99.90;;;;;;5050198;28;20402;-58
2022/10/19 02:42:53;;;;;;;7.30;1.38;;;10.90;99.90;;;;;;5048223;28;20045;-59
2022/10/19 02:45:31;;;;;;;6.63;1.63;;;11.90;99.90;;;;;;5045492;28;20033;-58
2022/10/19 02:48:08;;;;;;;5.45;1.30;;;11.60;99.90;;;;;;5044604;28;20025;-59
2022/10/19 02:50:34;;;;;;;6.82;1.50;;;11.20;99.90;;;;;;5054207;28;20094;-58
2022/10/19 02:53:00;;;;;;;12.02;2.92;;;11.60;99.90;;;;;;5054854;28;20036;-59
2022/10/19 02:55:27;;;;;;;7.22;1.10;;;11.20;99.90;;;;;;5049994;28;20040;-58
2022/10/19 02:57:53;;;;;;;7.57;1.40;;;11.00;99.90;;;;;;5050890;28;20039;-59
2022/10/19 03:00:19;;;;;;;10.77;1.98;;;11.10;99.90;;;;;;5051908;28;20398;-59
2022/10/19 03:02:44;;;;;;;7.60;1.70;;;11.30;99.90;;;;;;5050486;28;20128;-57
2022/10/19 03:05:10;;;;;;;5.80;1.30;;;10.90;99.90;;;;;;5050198;28;20113;-57
2022/10/19 03:07:35;;;;;;;8.52;1.80;;;10.70;99.90;;;;;;5050678;28;20033;-58
2022/10/19 03:10:01;;;;;;;5.47;1.30;;;10.80;99.90;;;;;;5050020;28;20033;-58
2022/10/19 03:12:27;;;;;;;8.57;1.98;;;11.70;99.90;;;;;;5056456;28;20647;-57
2022/10/19 03:14:53;;;;;;;8.35;1.98;;;11.10;99.90;;;;;;5053702;28;20490;-57
2022/10/19 03:17:18;;;;;;;8.38;1.73;;;10.70;99.90;;;;;;5051432;28;20033;-58
2022/10/19 03:19:44;;;;;;;9.20;1.70;;;10.70;99.90;;;;;;5031975;28;20044;-58
2022/10/19 03:22:09;;;;;;;6.95;1.63;;;10.80;99.90;;;;;;5050145;28;20037;-57
2022/10/19 03:24:35;;;;;;;8.75;1.70;;;10.70;99.90;;;;;;5097373;22;20525;-62
2022/10/19 03:27:01;;;;;;;8.02;1.60;;;10.80;99.90;;;;;;5038290;28;20045;-62
2022/10/19 03:29:27;;;;;;;8.13;1.80;;;;;;;;;;5056274;28;20048;-63
2022/10/19 03:31:53;;;;;;;7.50;1.45;;;10.90;99.90;;;;;;5057092;28;20089;-62
2022/10/19 03:34:18;;;;;;;8.05;1.67;;;10.80;99.90;;;;;;5062427;28;20152;-62
2022/10/19 03:36:45;;;;;;;7.18;1.40;;;;;;;;;;5064562;28;20047;-62
2022/10/19 03:39:12;;;;;;;6.53;1.50;;;;;;;;;;5062942;28;20085;-62
2022/10/19 03:41:38;;;;;;;5.82;1.45;;;10.60;99.90;;;;;;5057375;28;20072;-62
2022/10/19 03:44:06;;;;;;;9.82;1.80;;;10.90;99.90;;;;;;5065768;28;20123;-62
2022/10/19 03:46:32;;;;;;;8.75;1.80;;;;;;;;;;5044301;28;20242;-62
2022/10/19 03:48:58;;;;;;;11.95;1.95;;;11.00;99.90;;;;;;5061035;28;20406;-62
2022/10/19 03:51:26;;;;;;;8.50;1.70;;;10.70;99.90;;;;;;5064576;28;20036;-62
2022/10/19 03:53:57;;;;;;;8.13;1.60;;;;;;;;;;5069445;28;20090;-62
2022/10/19 03:56:24;;;;;;;9.23;2.30;;;;;;;;;;5066681;28;20043;-62
2022/10/19 03:58:51;;;;;;;9.25;1.73;;;;;;;;;;5069092;28;20044;-62
2022/10/19 04:01:27;;;;;;;6.65;1.55;;;;;;;;;;5067861;28;20037;-62
2022/10/19 04:03:53;;;;;;;9.95;1.80;;;;;;;;;;5062754;28;20070;-62
2022/10/19 04:06:24;;;;;;;6.72;1.67;;;10.70;99.90;;;;;;5068334;28;20163;-62
2022/10/19 04:08:49;;;;;;;8.30;1.80;;;11.00;99.90;;;;;;5061215;28;20045;-62
2022/10/19 04:11:17;;;;;;;6.63;1.40;;;10.70;99.90;;;;;;5069208;28;20295;-62
2022/10/19 04:13:43;;;;;;;6.43;1.50;;;10.70;99.90;;;;;;5065374;28;20557;-62
2022/10/19 04:16:12;;;;;;;10.25;2.05;;;;;;;;;;5069507;28;20135;-62
2022/10/19 04:18:38;;;;;;;10.35;2.10;;;10.70;99.90;;;;;;5064019;28;20513;-62
2022/10/19 04:21:05;;;;;;;11.48;1.92;;;;;;;;;;5063841;28;20028;-62
2022/10/19 04:23:33;;;;;;;11.30;1.90;;;10.50;99.90;;;;;;5068169;28;20044;-62
2022/10/19 04:26:05;;;;;;;10.40;2.03;;;10.50;99.90;;;;;;5044752;28;20029;-62
2022/10/19 04:28:32;;;;;;;6.63;1.50;;;10.30;99.90;;;;;;5049222;28;20544;-62
2022/10/19 04:31:01;;;;;;;8.57;1.75;;;;;;;;;;5062879;28;20087;-62
2022/10/19 04:33:27;;;;;;;10.48;1.95;;;10.30;99.90;;;;;;5062046;28;20131;-62
2022/10/19 04:36:04;;;;;;;11.52;2.65;;;10.10;99.90;;;;;;5070832;28;20072;-62
2022/10/19 04:38:30;;;;;;;13.65;2.88;;;10.20;99.90;;;;;;5059403;28;20052;-62
2022/10/19 04:41:01;;;;;;;8.85;2.35;;;;;;;;;;5072188;28;20448;-62
2022/10/19 04:43:26;;;;;;;10.63;2.15;;;10.00;99.90;;;;;;5064221;28;20036;-62
2022/10/19 04:45:52;;;;;;;6.75;1.90;;;;;;;;;;5061234;28;20033;-62
2022/10/19 04:48:18;;;;;;;6.90;1.77;;;10.10;99.90;;;;;;5059061;28;20039;-62
2022/10/19 04:50:44;;;;;;;9.40;2.13;;;;;;;;;;5054894;28;20040;-62
2022/10/19 04:53:09;;;;;;;7.93;1.90;;;10.00;99.90;;;;;;5045037;28;20045;-62
2022/10/19 04:55:39;;;;;;;11.13;2.10;;;;;;;;;;5049797;28;20067;-62
2022/10/19 04:58:05;;;;;;;7.88;2.75;;;9.90;99.90;;;;;;5049285;28;20037;-62
2022/10/19 05:00:31;;;;;;;9.23;2.00;;;;;;;;;;5041181;28;20111;-62
2022/10/19 05:02:57;;;;;;;7.32;2.10;;;;;;;;;;5037491;28;20423;-61
2022/10/19 05:05:24;;;;;;;8.85;2.00;;;10.10;99.90;;;;;;5028109;28;20045;-61
2022/10/19 05:07:50;;;;;;;12.05;2.10;;;;;;;;;;5032499;28;20220;-61
2022/10/19 05:10:16;;;;;;;7.32;1.60;;;10.20;99.90;;;;;;5015626;28;20179;-61
2022/10/19 05:12:41;;;;;;;8.00;1.95;;;10.20;99.90;;;;;;5053753;28;20147;-61
2022/10/19 05:15:07;;;;;;;14.70;2.25;;;;;;;;;;5059866;28;20491;-61
2022/10/19 05:17:33;;;;;;;8.20;2.10;;;10.20;99.90;;;;;;5047980;28;20037;-61
2022/10/19 05:19:59;;;;;;;9.80;2.45;;;;;;;;;;5063773;28;20033;-61
2022/10/19 05:22:25;;;;;;;8.15;1.73;;;10.30;99.90;;;;;;5067193;28;20429;-61
2022/10/19 05:24:50;;;;;;;9.40;1.80;;;10.40;99.90;;;;;;5064874;28;20037;-61
2022/10/19 05:27:16;;;;;;;9.40;1.70;;;10.20;99.90;;;;;;5068665;28;20040;-61
2022/10/19 05:29:42;;;;;;;12.52;3.25;;;;;;;;;;5063675;28;20029;-61
2022/10/19 05:32:07;;;;;;;10.50;2.53;;;10.30;99.90;;;;;;5066839;28;20116;-61
2022/10/19 05:34:33;;;;;;;7.80;1.70;;;;;;;;;;5062554;28;20036;-61
2022/10/19 05:36:59;;;;;;;8.48;2.05;;;;;;;;;;5067466;28;20044;-61
2022/10/19 05:39:26;;;;;;;6.32;1.83;;;;;;;;;;5064980;28;20032;-61
2022/10/19 05:41:51;;;;;;;9.35;2.00;;;10.40;99.90;;;;;;5050351;28;20102;-61
2022/10/19 05:44:19;;;;;;;12.65;2.08;;;;;;;;;;5065969;28;20036;-61
2022/10/19 05:46:45;;;;;;;12.10;2.20;;;10.40;99.90;;;;;;5026633;28;20114;-61
2022/10/19 05:49:11;;;;;;;9.95;3.00;;;;;;;;;;5057323;28;20510;-61
2022/10/19 05:51:38;;;;;;;10.80;1.80;;;10.50;99.90;;;;;;5045289;28;20037;-61
2022/10/19 05:54:03;;;;;;;11.48;2.50;;;10.50;99.90;;;;;;5063370;28;20043;-61
2022/10/19 05:56:30;;;;;;;9.85;2.03;;;10.40;99.90;;;;;;5054666;28;20045;-61
2022/10/19 05:58:57;;;;;;;10.35;2.33;;;;;;;;;;5064180;28;20116;-61
2022/10/19 06:01:23;;;;;;;9.48;1.80;;;10.40;99.90;;;;;;5049258;28;20045;-61
2022/10/19 06:03:54;;;;;;;12.02;2.92;;;10.20;99.90;;;;;;5058956;28;20037;-61
2022/10/19 06:06:20;;;;;;;10.98;2.15;;;;;;;;;;5061818;28;20083;-61
2022/10/19 06:08:46;;;;;;;12.45;2.35;;;10.50;99.90;;;;;;5042204;28;20041;-61
2022/10/19 06:11:13;;;;;;;8.73;2.00;;;10.80;99.90;;;;;;5043409;28;20036;-61
2022/10/19 06:13:40;;;;;;;8.70;1.77;;;;;;;;;;5061964;28;20044;-62
2022/10/19 06:16:07;;;;;;;11.95;1.83;;;10.70;99.90;;;;;;5067293;28;20445;-61
2022/10/19 06:18:33;;;;;;;8.73;2.35;;;;;;;;;;5060495;28;20049;-61
2022/10/19 06:21:04;;;;;;;9.32;1.92;;;10.30;99.90;;;;;;5041139;28;20040;-61
2022/10/19 06:23:30;;;;;;;12.70;2.35;;;10.70;99.90;;;;;;5062007;28;20490;-61
2022/10/19 06:25:56;;;;;;;7.97;2.22;;;10.40;99.90;;;;;;5060102;28;20497;-61
2022/10/19 06:28:22;;;;;;;7.80;1.98;;;10.50;99.90;;;;;;5060431;28;20146;-61
2022/10/19 06:30:48;;;;;;;8.05;1.80;;;;;;;;;;5057731;28;20072;-61
2022/10/19 06:33:14;;;;;;;8.32;1.70;;;;;;;;;;5047660;28;20445;-61
2022/10/19 06:35:41;;;;;;;9.15;2.45;;;10.10;99.90;;;;;;5060321;28;20047;-61
2022/10/19 06:38:08;;;;;;;9.23;1.92;;;10.00;99.90;;;;;;5055598;28;20045;-61
2022/10/19 06:40:35;;;;;;;8.18;1.90;;;10.40;99.90;;;;;;5057944;28;20040;-61
2022/10/19 06:43:00;;;;;;;8.90;2.10;;;10.60;99.90;;;;;;5049671;28;20093;-61
2022/10/19 06:45:26;;;;;;;8.35;2.45;;;10.50;99.90;;;;;;5049980;28;20491;-61
2022/10/19 06:47:51;;;;;;;11.20;2.00;;;10.70;99.90;;;;;;5061631;28;20178;-61
2022/10/19 06:50:17;;;;;;;8.48;2.33;;;10.80;99.90;;;;;;5057371;28;20242;-61
2022/10/19 06:52:43;;;;;;;8.73;1.70;;;10.70;99.90;;;;;;5064800;28;20320;-61
2022/10/19 06:55:09;;;;;;;9.02;1.60;;;10.60;99.90;;;;;;5049179;28;20037;-61
2022/10/19 06:57:35;;;;;;;6.43;1.73;;;10.80;99.90;;;;;;5047152;28;20498;-61
2022/10/19 07:00:00;;;;;;;10.43;2.08;;;10.80;99.90;;;;;;5055030;28;20049;-61
2022/10/19 07:02:26;;;;;;;13.80;2.85;;;;;;;;;;5036037;28;20085;-61
2022/10/19 07:04:52;;;;;;;7.90;1.60;;;;;;;;;;5051814;28;20025;-61
2022/10/19 07:07:18;;;;;;;7.05;2.30;;;10.60;99.90;;;;;;5049550;28;20041;-61
2022/10/19 07:09:43;;;;;;;10.48;2.13;;;10.70;99.90;;;;;;5058922;28;20072;-61
2022/10/19 07:12:09;;;;;;;10.23;2.22;;;10.60;99.90;;;;;;5052852;28;20033;-61
2022/10/19 07:14:38;;;;;;;9.23;1.90;;;10.90;99.90;;;;;;5060210;28;20053;-61
2022/10/19 07:17:07;;;;;;;10.57;2.83;;;;;;;;;;5061273;28;20039;-61
2022/10/19 07:19:33;;;;;;;12.95;2.05;;;10.90;99.90;;;;;;5054013;28;20120;-61
2022/10/19 07:21:58;;;;;;;9.43;1.80;;;11.20;99.90;;;;;;5055527;28;20112;-61
2022/10/19 07:24:24;;;;;;;8.02;1.60;;;11.30;99.90;;;;;;5038419;28;20566;-61
2022/10/19 07:26:50;;;;;;;10.25;2.70;;;;;;;;;;5049601;28;20033;-61
2022/10/19 07:29:16;;;;;;;8.55;1.70;;;;;;;;;;5027956;28;20561;-61
2022/10/19 07:31:42;;;;;;;11.40;2.22;;;11.30;99.90;;;;;;5060377;28;20495;-61
2022/10/19 07:34:12;;;;;;;6.57;1.92;;;11.10;99.90;;;;;;5059062;28;20256;-62
2022/10/19 07:36:38;;;;;;;12.50;2.53;;;11.70;99.90;;;;;;5061345;28;20041;-62
2022/10/19 07:39:06;;;;;;;9.07;1.67;;;;;;;;;;5055384;28;20101;-62
2022/10/19 07:41:33;;;;;;;9.63;1.60;;;11.80;99.90;;;;;;5042056;28;20093;-61
2022/10/19 07:44:00;;;;;;;9.60;1.85;;;12.00;99.90;;;;;;5052112;28;20053;-61
2022/10/19 07:46:32;;;;;;;8.18;1.95;;;12.20;99.90;;;;;;5051840;28;20044;-61
2022/10/19 07:48:58;;;;;;;10.52;2.30;;;11.80;99.90;;;;;;5033187;28;20491;-61
2022/10/19 07:51:24;;;;;;;11.88;2.53;;;11.30;99.90;;;;;;5052693;28;20037;-61
2022/10/19 07:53:50;;;;;;;6.82;1.73;;;12.00;99.90;;;;;;5061232;28;20048;-61
2022/10/19 07:56:19;;;;;;;8.38;1.83;;;12.60;99.90;;;;;;5053421;28;20044;-61
2022/10/19 07:58:46;;;;;;;9.18;1.73;;;11.50;99.90;;;;;;5060076;28;20040;-61
2022/10/19 08:01:17;;;;;;;9.60;1.80;;;12.60;99.90;;;;;;5037797;28;20490;-61
2022/10/19 08:03:43;;;;;;;9.27;1.90;;;;;;;;;;5037581;28;20085;-62
2022/10/19 08:06:11;;;;;;;7.90;2.00;;;;;;;;;;5058020;28;20112;-61
2022/10/19 08:08:37;;;;;;;8.50;1.65;;;12.40;99.90;;;;;;5051804;28;20071;-61
2022/10/19 08:11:26;;;;;;;10.15;2.22;;;12.30;99.90;;;;;;5050659;28;20447;-62
2022/10/19 08:13:53;;;;;;;8.07;2.00;;;12.40;99.90;;;;;;5035728;28;20045;-61
2022/10/19 08:16:24;;;;;;;14.98;3.53;;;;;;;;;;5030579;28;20325;-62
2022/10/19 08:18:50;;;;;;;9.43;1.92;;;;;;;;;;5030547;28;20041;-61
2022/10/19 08:21:16;;;;;;;9.57;1.92;;;12.70;99.90;;;;;;5032220;28;20605;-61
2022/10/19 08:23:41;;;;;;;9.38;1.70;;;12.80;99.90;;;;;;5033798;28;20120;-62
2022/10/19 08:26:07;;;;;;;6.28;1.77;;;12.80;99.90;;;;;;5025399;28;20110;-61
2022/10/19 08:28:33;;;;;;;7.32;1.63;;;12.70;99.90;;;;;;5032751;28;20045;-61
2022/10/19 08:30:59;;;;;;;10.13;1.83;;;;;;;;;;5036184;28;20029;-62
2022/10/19 08:33:25;;;;;;;9.32;1.45;;;12.80;99.90;;;;;;5037352;28;20112;-62
2022/10/19 08:35:52;;;;;;;8.60;1.60;;;;;;;;;;5038169;28;20085;-62
2022/10/19 08:38:22;;;;;;;9.20;1.77;;;;;;;;;;5044556;28;20044;-62
2022/10/19 08:40:47;;;;;;;6.35;1.35;;;13.20;99.90;;;;;;5063327;28;20045;-61
2022/10/19 08:43:31;;;;;;;9.55;1.75;;;;;;;;;;5058628;28;20037;-61
2022/10/19 08:46:23;;;;;;;10.38;2.00;;;12.60;99.90;;;;;;5055332;28;20044;-62
2022/10/19 08:48:50;;;;;;;9.05;1.40;;;13.10;99.90;;;;;;5065962;28;20119;-62
2022/10/19 08:51:16;;;;;;;8.32;1.92;;;13.30;99.90;;;;;;5060187;28;20025;-61
2022/10/19 08:53:50;;;;;;;8.75;1.67;;;13.10;99.90;;;;;;5040706;28;20107;-62
2022/10/19 08:56:54;;;;;;;8.95;1.85;;;13.50;99.90;;;;;;5057795;28;20098;-61
2022/10/19 08:59:25;;;;;;;6.60;1.45;;;13.20;99.90;;;;;;4989725;28;20043;-62
2022/10/19 09:01:56;;;;;;;6.10;1.60;;;;;;;;;;5045655;28;20052;-61
2022/10/19 09:04:31;;;;;;;7.90;2.60;;;13.60;99.90;;;;;;5039131;28;20048;-62
2022/10/19 09:07:27;;;;;;;7.20;1.25;;;14.10;99.90;;;;;;5059413;28;20051;-61
2022/10/19 09:10:01;;;;;;;6.72;1.95;;;;;;;;;;5055269;28;20041;-62
2022/10/19 09:12:33;;;;;;;10.32;1.90;;;;;;;;;;5057506;28;20055;-62
2022/10/19 09:15:05;;;;;;;7.32;1.60;;;13.40;23.70;;;;;;5058281;28;20067;-62
2022/10/19 09:17:32;;;;;;;6.40;1.52;;;14.30;48.90;;;;;;5060108;28;20052;-62
2022/10/19 09:20:01;;;;;;;10.18;2.13;;;;;;;;;;5049144;28;20041;-62
2022/10/19 09:22:33;;;;;;;8.27;1.52;;;13.40;8.10;;;;;;5036181;28;20041;-62
2022/10/19 09:25:19;;;;;;;7.88;1.45;;;13.60;22.40;;;;;;5112113;22;20095;-58
2022/10/19 09:27:47;;;;;;;7.47;1.20;;;14.10;2.30;;;;;;5052230;28;20033;-58
2022/10/19 09:30:19;;;;;;;8.80;1.50;;;13.70;1.00;;;;;;5059615;28;20025;-59
2022/10/19 09:32:46;;;;;;;8.05;1.70;;;14.20;1.00;;;;;;5052547;28;20140;-59
2022/10/19 09:35:26;;;;;;;10.55;2.10;;;14.40;1.00;;;;;;5043093;28;20490;-61
2022/10/19 09:37:53;;;;;;;10.98;1.83;;;14.30;1.00;;;;;;5040557;28;20045;-60
2022/10/19 09:40:22;;;;;;;6.05;1.52;;;14.10;1.00;;;;;;5045305;28;20041;-60
2022/10/19 09:42:55;;;;;;;12.02;1.83;;;14.40;1.00;;;;;;5049383;28;21069;-60
2022/10/19 09:45:30;;;;;;;10.70;1.93;;;14.40;1.00;;;;;;5046998;28;20083;-60
2022/10/19 09:47:56;;;;;;;10.02;1.70;;;;;;;;;;5051954;28;20075;-60
2022/10/19 09:50:24;;;;;;;6.85;1.63;;;13.40;1.00;;;;;;5037512;28;20029;-60
2022/10/19 09:52:55;;;;;;;10.32;2.00;;;14.60;1.00;;;;;;5053094;28;20043;-60
2022/10/19 09:55:24;;;;;;;9.52;1.85;;;13.80;1.00;;;;;;5042463;28;20568;-60
2022/10/19 09:57:57;;;;;;;7.95;1.60;;;14.60;1.00;;;;;;5053692;28;20036;-60
2022/10/19 10:00:33;;;;;;;6.37;1.53;;;14.60;1.00;;;;;;5051499;28;20037;-59
2022/10/19 10:02:59;;;;;;;9.63;1.60;;;14.20;1.00;;;;;;5042159;28;20387;-59
2022/10/19 10:05:36;;;;;;;7.93;1.65;;;14.60;1.00;;;;;;5052294;28;20040;-59
2022/10/19 10:08:10;;;;;;;14.15;2.35;;;14.30;1.00;;;;;;5048303;28;20041;-59
2022/10/19 10:10:41;;;;;;;10.52;2.55;;;14.50;1.00;;;;;;5058340;28;20033;-60
2022/10/19 10:13:14;;;;;;;8.27;1.70;;;14.80;1.00;;;;;;5047003;28;20033;-59
2022/10/19 10:15:43;;;;;;;11.07;1.83;;;14.60;1.00;;;;;;5059668;28;20055;-59
2022/10/19 10:18:13;;;;;;;6.22;1.95;;;14.70;1.00;;;;;;5039595;28;20039;-59
2022/10/19 10:21:20;;;;;;;9.40;2.42;;;14.70;1.00;;;;;;5043369;28;20032;-58
2022/10/19 10:24:18;;;;;;;10.18;1.67;;;14.90;1.00;;;;;;5036351;28;20052;-59
2022/10/19 10:26:52;;;;;;;6.32;1.63;;;15.20;1.00;;;;;;5049410;28;20075;-59
2022/10/19 10:29:32;;;;;;;;;;;14.60;1.00;;;;;;5037952;28;20044;-58
2022/10/19 10:32:07;;;;;;;6.28;1.50;;;14.90;1.00;;;;;;5021406;28;19916;-59
2022/10/19 10:34:34;;;;;;;5.50;1.60;;;14.90;1.00;;;;;;5028944;28;20041;-60
2022/10/19 10:37:03;;;;;;;8.00;2.30;;;15.50;1.00;;;;;;5056547;28;20041;-59
2022/10/19 10:39:29;;;;;;;9.82;1.83;;;14.60;1.00;;;;;;5052399;28;20041;-59
2022/10/19 10:41:59;;;;;;;6.85;1.90;;;15.20;1.00;;;;;;5048115;28;20029;-59
2022/10/19 10:44:32;;;;;;;8.40;1.95;;;14.90;1.00;;;;;;5051461;28;20451;-59
2022/10/19 10:46:59;;;;;;;14.32;2.47;;;15.20;1.00;;;;;;5034812;28;20461;-58
2022/10/19 10:49:28;;;;;;;10.20;2.00;;;15.10;1.00;;;;;;5060900;28;20090;-60
2022/10/19 10:52:00;;;;;;;8.20;1.75;;;15.10;1.00;;;;;;5031474;28;20037;-59
2022/10/19 10:54:30;;;;;;;6.00;1.70;;;15.60;1.00;;;;;;5047452;28;20095;-60
2022/10/19 10:57:08;;;;;;;8.32;1.80;;;16.60;1.00;;;;;;5044990;28;20516;-59
2022/10/19 10:59:59;;;;;;;9.05;2.25;;;15.70;1.00;;;;;;5042468;28;20582;-59
2022/10/19 11:02:39;;;;;;;5.80;1.40;;;15.50;1.00;;;;;;5024803;28;20037;-60
2022/10/19 11:05:45;;;;;;;6.68;1.55;;;15.60;1.00;;;;;;5037504;28;20040;-60
2022/10/19 11:08:25;;;;;;;7.10;1.52;;;15.90;1.00;;;;;;4973757;28;20493;-58
2022/10/19 11:10:58;;;;;;;5.80;1.30;;;16.40;1.00;;;;;;5034131;28;20053;-59
2022/10/19 11:13:29;;;;;;;8.57;1.88;;;16.20;1.00;;;;;;5043526;28;20049;-60
2022/10/19 11:16:15;;;;;;;7.28;2.05;;;;;;;;;;5048208;28;20076;-60
2022/10/19 11:18:49;;;;;;;7.60;1.42;;;16.40;1.00;;;;;;5044809;28;20506;-59
2022/10/19 11:21:28;;;;;;;7.68;2.40;;;15.90;1.00;;;;;;5031647;28;20049;-60
2022/10/19 11:24:14;;;;;;;8.00;1.65;;;16.10;1.00;;;;;;5050297;28;20072;-60
2022/10/19 11:27:04;;;;;;;8.10;1.70;;;16.00;1.00;;;;;;5057162;28;20076;-60
2022/10/19 11:29:49;;;;;;;6.32;1.35;;;15.80;1.00;;;;;;5045031;28;20041;-59
2022/10/19 11:32:30;;;;;;;;;;;16.50;1.00;;;;;;5029340;28;20044;-60
2022/10/19 11:35:04;;;;;;;7.97;1.58;;;16.40;1.00;;;;;;5046075;28;19924;-59
2022/10/19 11:37:46;;;;;;;8.20;1.58;;;15.40;1.00;;;;;;5043230;28;20049;-59
2022/10/19 11:40:28;;;;;;;8.45;1.85;;;16.60;1.00;;;;;;5045708;28;20032;-59
2022/10/19 11:42:54;;;;;;;7.63;1.45;;;16.00;1.00;;;;;;5044163;28;20406;-60
2022/10/19 11:45:32;;;;;;;6.55;1.48;;;16.60;1.00;;;;;;5047975;28;20029;-59
2022/10/19 11:48:32;;;;;;;6.72;1.60;;;16.70;1.00;;;;;;5038995;28;20052;-60
2022/10/19 11:51:15;;;;;;;8.90;1.52;;;16.50;1.00;;;;;;5039247;28;20033;-60
2022/10/19 11:54:07;;;;;;;8.70;1.65;;;16.50;1.00;;;;;;5040890;28;20037;-59
2022/10/19 11:57:07;;;;;;;7.00;1.77;;;16.40;1.00;;;;;;5042139;28;20051;-60
2022/10/19 11:59:47;;;;;;;6.60;1.63;;;16.20;1.00;;;;;;5043058;28;20092;-60
2022/10/19 12:02:42;;;;;;;9.20;1.80;;;16.40;1.00;;;;;;5044126;28;20124;-60
2022/10/19 12:05:33;;;;;;;8.25;1.40;;;16.60;1.00;;;;;;5040507;28;20043;-60
2022/10/19 12:08:35;;;;;;;10.35;1.67;;;16.50;1.00;;;;;;4997552;28;20080;-59
2022/10/19 12:11:12;;;;;;;6.35;2.15;;;16.50;1.00;;;;;;5047111;28;20072;-60
2022/10/19 12:13:43;;;;;;;6.28;1.65;;;17.60;1.00;;;;;;5062047;28;20044;-59
2022/10/19 12:16:12;;;;;;;7.28;1.88;;;19.00;1.00;;;;;;5057114;28;20036;-59
2022/10/19 12:18:45;;;;;;;9.55;1.60;;;20.10;99.90;;;;;;5062079;28;20044;-59
2022/10/19 12:21:29;;;;;;;11.00;2.00;;;20.70;99.90;;;;;;5059809;28;20485;-59
2022/10/19 12:23:57;;;;;;;9.73;1.77;;;23.20;99.90;;;;;;5059508;28;20545;-61
2022/10/19 12:26:26;;;;;;;5.05;1.30;;;23.50;99.90;;;;;;5058637;28;20040;-59
2022/10/19 12:28:59;;;;;;;5.85;1.52;;;25.00;99.90;;;;;;5054534;28;20698;-60
2022/10/19 12:31:27;;;;;;;8.43;1.73;;;26.10;99.90;;;;;;5060097;28;20044;-62
2022/10/19 12:34:06;;;;;;;7.00;1.50;;;26.60;99.90;;;;;;5062234;28;20051;-62
2022/10/19 12:36:32;;;;;;;6.32;1.58;;;28.00;99.90;;;;;;5059041;28;20033;-62
2022/10/19 12:39:25;;;;;;;6.30;1.42;;;29.90;99.90;;;;;;5060307;28;20082;-61
2022/10/19 12:41:57;;;;;;;5.80;1.42;;;30.00;99.90;;;;;;5052008;28;20375;-61
2022/10/19 12:44:32;;;;;;;7.72;1.83;;;30.40;99.90;;;;;;5051200;28;20490;-60
2022/10/19 12:47:05;;;;;;;8.68;1.40;;;31.50;99.90;;;;;;5050435;28;20555;-61
2022/10/19 12:49:37;;;;;;;6.23;1.37;;;31.30;99.90;;;;;;5041542;28;20037;-60
2022/10/19 12:52:03;;;;;;;7.45;1.65;;;30.80;99.90;;;;;;5044692;28;20063;-60
2022/10/19 12:54:32;;;;;;;9.00;1.45;;;30.60;99.90;;;;;;5053407;28;20044;-61
2022/10/19 12:57:00;;;;;;;7.75;2.10;;;30.10;99.90;;;;;;5050941;28;20490;-63
2022/10/19 12:59:32;;;;;;;6.95;1.40;;;28.80;99.90;;;;;;5043326;28;20403;-63
2022/10/19 13:01:59;;;;;;;7.68;1.40;;;29.30;99.90;;;;;;5049209;28;20029;-62
2022/10/19 13:04:31;;;;;;;6.18;1.60;;;30.30;99.90;;;;;;5050324;28;20117;-62
2022/10/19 13:06:57;;;;;;;5.95;1.70;;;30.00;99.90;;;;;;5051823;28;20093;-63
2022/10/19 13:09:40;;;;;;;6.22;1.50;;;30.10;99.90;;;;;;5053803;28;20033;-61
2022/10/19 13:12:15;;;;;;;7.65;1.90;;;30.50;99.90;;;;;;5046972;28;20069;-63
2022/10/19 13:14:51;;;;;;;7.68;1.80;;;30.30;99.90;;;;;;5049780;28;20091;-62
2022/10/19 13:20:12;;;;;;;6.80;1.90;;;31.10;99.90;;;;;;5055378;28;20271;-62
2022/10/19 13:23:11;;;;;;;6.20;1.45;;;29.20;99.90;;;;;;5048199;28;20044;-62
2022/10/19 13:25:41;;;;;;;7.18;1.67;;;28.00;99.90;;;;;;5003650;28;20059;-62
2022/10/19 13:28:06;;;;;;;6.63;1.48;;;28.40;99.90;;;;;;5049597;28;20041;-62